Time;durP1;ratioP1;P1;durP2;ratioP2;P2;SDS_P1;SDS_P2;PMS_P1;PMS_P2;Temp;Humidity;BMP_temperature;BMP_pressure;BME280_temperature;BME280_humidity;BME280_pressure;Samples;Min_cycle;Max_cycle;Signal;HPM_P1;HPM_P2
2022/01/24 00:01:03;;;;;;;;;;;0.20;99.90;;;;;;4990387;28;19932;-64
2022/01/24 00:03:30;;;;;;;;;;;0.20;99.90;;;;;;4991146;28;19961;-64
2022/01/24 00:05:57;;;;;;;;;;;0.20;99.90;;;;;;4990952;28;19929;-63
2022/01/24 00:08:23;;;;;;;;;;;0.20;99.90;;;;;;4990479;28;19995;-63
2022/01/24 00:10:52;;;;;;;;;;;0.20;99.90;;;;;;4990646;28;19932;-64
2022/01/24 00:26:41;;;;;;;;;;;0.20;99.90;;;;;;4990337;28;19931;-63
2022/01/24 00:26:49;;;;;;;;;;;0.20;99.90;;;;;;5005956;28;20382;-62
2022/01/24 00:29:16;;;;;;;;;;;0.20;99.90;;;;;;4988313;28;20257;-63
2022/01/24 00:31:43;;;;;;;;;;;0.20;99.90;;;;;;4990393;28;19925;-63
2022/01/24 00:34:10;;;;;;;;;;;0.20;99.90;;;;;;4990793;28;20673;-62
2022/01/24 00:36:38;;;;;;;;;;;0.20;99.90;;;;;;4990801;28;20000;-63
2022/01/24 00:39:05;;;;;;;;;;;0.20;99.90;;;;;;4990231;28;20220;-63
2022/01/24 00:41:40;;;;;;;;;;;0.20;99.90;;;;;;4989698;28;20044;-63
2022/01/24 00:47:00;;;;;;;;;;;0.20;99.90;;;;;;4990296;28;19925;-63
2022/01/24 00:54:59;;;;;;;;;;;0.10;99.90;;;;;;4989826;28;20407;-63
2022/01/24 00:57:25;;;;;;;;;;;0.10;99.90;;;;;;4990231;28;20394;-63
2022/01/24 00:59:52;;;;;;;;;;;0.00;99.90;;;;;;4990111;28;20279;-63
2022/01/24 01:02:19;;;;;;;;;;;0.10;99.90;;;;;;4989824;28;20019;-63
2022/01/24 01:07:32;;;;;;;;;;;0.00;99.90;;;;;;4989657;28;19925;-63
2022/01/24 01:18:16;;;;;;;;;;;0.00;99.90;;;;;;4989232;28;19980;-63
2022/01/24 01:21:07;;;;;;;;;;;0.00;99.90;;;;;;4988244;28;19925;-63
2022/01/24 01:23:31;;;;;;;;;;;0.00;99.90;;;;;;4989345;28;20207;-63
2022/01/24 01:26:00;;;;;;;;;;;0.00;99.90;;;;;;4989544;28;20315;-63
2022/01/24 01:28:29;;;;;;;;;;;0.00;99.90;;;;;;4988766;28;20682;-63
2022/01/24 01:31:00;;;;;;;;;;;0.00;99.90;;;;;;4989754;28;19979;-63
2022/01/24 01:57:11;;;;;;;;;;;0.00;99.90;;;;;;4989059;28;20254;-64
2022/01/24 01:59:37;;;;;;;;;;;-0.10;99.90;;;;;;4988678;28;19929;-64
2022/01/24 02:02:04;;;;;;;;;;;-0.10;99.90;;;;;;5003035;28;19944;-63
2022/01/24 02:04:31;;;;;;;;;;;-0.10;99.90;;;;;;4989076;28;19925;-64
2022/01/24 02:06:58;;;;;;;;;;;-0.10;99.90;;;;;;4988186;28;19940;-64
2022/01/24 02:09:28;;;;;;;;;;;-0.10;99.90;;;;;;4988611;28;19988;-64
2022/01/24 02:11:55;;;;;;;;;;;-0.20;99.90;;;;;;4989098;28;19929;-63
2022/01/24 02:14:28;;;;;;;;;;;-0.20;99.90;;;;;;4989142;28;19925;-64
2022/01/24 02:17:01;;;;;;;;;;;-0.20;99.90;;;;;;4988901;28;19933;-64
2022/01/24 02:19:51;;;;;;;;;;;-0.20;99.90;;;;;;5002484;28;20461;-64
2022/01/24 02:22:41;;;;;;;;;;;-0.20;99.90;;;;;;4988245;28;20362;-64
2022/01/24 02:25:16;;;;;;;;;;;-0.20;99.90;;;;;;4988810;28;19972;-64
2022/01/24 02:27:53;;;;;;;;;;;-0.20;99.90;;;;;;4987663;28;19925;-64
2022/01/24 02:30:40;;;;;;;;;;;-0.30;99.90;;;;;;4988529;28;19929;-64
2022/01/24 02:33:08;;;;;;;;;;;-0.20;99.90;;;;;;4988124;28;20045;-64
2022/01/24 02:35:35;;;;;;;;;;;-0.30;99.90;;;;;;4987562;28;19948;-64
2022/01/24 02:38:07;;;;;;;;;;;-0.30;99.90;;;;;;4986848;28;20286;-64
2022/01/24 02:40:34;;;;;;;;;;;-0.30;99.90;;;;;;4988170;28;19972;-64
2022/01/24 02:48:33;;;;;;;;;;;-0.30;99.90;;;;;;4988571;28;19932;-64
2022/01/24 02:53:40;;;;;;;;;;;-0.30;99.90;;;;;;4987697;28;19925;-64
2022/01/24 02:56:07;;;;;;;;;;;-0.40;99.90;;;;;;5002605;28;20414;-63
2022/01/24 02:58:34;;;;;;;;;;;-0.40;99.90;;;;;;4987979;28;20000;-64
2022/01/24 03:01:06;;;;;;;;;;;-0.40;99.90;;;;;;4987799;28;19926;-64
2022/01/24 03:03:33;;;;;;;;;;;-0.40;99.90;;;;;;4988054;28;20237;-64
2022/01/24 03:06:00;;;;;;;;;;;-0.40;99.90;;;;;;4988169;28;20040;-63
2022/01/24 03:08:27;;;;;;;;;;;-0.40;99.90;;;;;;4987209;28;20441;-64
2022/01/24 03:10:54;;;;;;;;;;;-0.40;99.90;;;;;;4987570;28;19979;-64
2022/01/24 03:15:54;;;;;;;;;;;-0.40;99.90;;;;;;4987800;28;20332;-64
2022/01/24 03:18:22;;;;;;;;;;;-0.40;99.90;;;;;;4987751;28;19933;-64
2022/01/24 03:20:49;;;;;;;;;;;-0.40;99.90;;;;;;4987727;28;20431;-64
2022/01/24 03:23:17;;;;;;;;;;;-0.40;99.90;;;;;;4986891;28;19925;-64
2022/01/24 03:25:44;;;;;;;;;;;-0.40;99.90;;;;;;4987642;28;19936;-64
2022/01/24 03:28:11;;;;;;;;;;;-0.40;99.90;;;;;;4987181;28;20063;-64
2022/01/24 03:30:38;;;;;;;;;;;-0.40;99.90;;;;;;4986258;28;20403;-63
2022/01/24 03:33:05;;;;;;;;;;;-0.40;99.90;;;;;;4991092;28;19925;-63
2022/01/24 03:35:32;;;;;;;;;;;-0.40;99.90;;;;;;4991024;28;19956;-64
2022/01/24 03:37:59;;;;;;;;;;;-0.40;99.90;;;;;;4991400;28;19925;-62
2022/01/24 03:40:26;;;;;;;;;;;-0.40;99.90;;;;;;4991260;28;20396;-63
2022/01/24 03:42:52;;;;;;;;;;;-0.40;99.90;;;;;;4989372;28;19929;-63
2022/01/24 03:45:35;;;;;;;;;;;-0.40;99.90;;;;;;4991395;28;20409;-63
2022/01/24 03:48:47;;;;;;;;;;;-0.40;99.90;;;;;;4991634;28;20039;-63
2022/01/24 03:50:54;;;;;;;;;;;-0.50;99.90;;;;;;4972402;28;19929;-63
2022/01/24 03:53:20;;;;;;;;;;;-0.50;99.90;;;;;;4989884;28;20131;-63
2022/01/24 03:55:47;;;;;;;;;;;-0.50;99.90;;;;;;4991495;28;20358;-63
2022/01/24 03:58:14;;;;;;;;;;;-0.50;99.90;;;;;;4991138;28;19930;-63
2022/01/24 04:00:41;;;;;;;;;;;-0.50;99.90;;;;;;4987465;28;19926;-63
2022/01/24 04:03:08;;;;;;;;;;;-0.50;99.90;;;;;;4989983;28;20145;-63
2022/01/24 04:05:35;;;;;;;;;;;-0.50;99.90;;;;;;4991116;28;20326;-62
2022/01/24 04:08:02;;;;;;;;;;;-0.50;99.90;;;;;;4984068;28;20032;-63
2022/01/24 04:10:28;;;;;;;;;;;-0.50;99.90;;;;;;4971167;28;19929;-66
2022/01/24 04:12:55;;;;;;;;;;;-0.50;99.90;;;;;;4971795;28;20004;-66
2022/01/24 04:15:41;;;;;;;;;;;-0.50;99.90;;;;;;4971630;28;19941;-67
2022/01/24 04:19:05;;;;;;;;;;;-0.50;99.90;;;;;;4981219;28;19937;-67
2022/01/24 04:23:44;;;;;;;;;;;-0.60;99.90;;;;;;4991019;28;20320;-66
2022/01/24 04:26:10;;;;;;;;;;;-0.60;99.90;;;;;;4991001;28;20746;-66
2022/01/24 04:28:37;;;;;;;;;;;-0.60;99.90;;;;;;4990920;28;19925;-66
2022/01/24 04:31:03;;;;;;;;;;;-0.60;99.90;;;;;;4990431;28;20147;-67
2022/01/24 04:33:31;;;;;;;;;;;-0.60;99.90;;;;;;4990707;28;19995;-66
2022/01/24 04:35:57;;;;;;;;;;;-0.60;99.90;;;;;;4990030;28;20200;-66
2022/01/24 04:38:24;;;;;;;;;;;-0.70;99.90;;;;;;4990790;28;20295;-66
2022/01/24 04:40:56;;;;;;;;;;;-0.70;99.90;;;;;;4989762;28;19926;-66
2022/01/24 04:46:10;;;;;;;;;;;-0.70;99.90;;;;;;4990364;28;19925;-66
2022/01/24 04:56:34;;;;;;;;;;;-0.60;99.90;;;;;;4990690;28;19933;-66
2022/01/24 04:59:06;;;;;;;;;;;-0.60;99.90;;;;;;4989857;28;20092;-66
2022/01/24 05:01:33;;;;;;;;;;;-0.60;99.90;;;;;;4990192;28;20024;-66
2022/01/24 05:04:00;;;;;;;;;;;-0.50;99.90;;;;;;4990220;28;20335;-67
2022/01/24 05:06:27;;;;;;;;;;;-0.60;99.90;;;;;;4990466;28;19925;-66
2022/01/24 05:08:54;;;;;;;;;;;-0.50;99.90;;;;;;4989417;28;19925;-66
2022/01/24 05:11:35;;;;;;;;;;;-0.50;99.90;;;;;;4990102;28;19925;-67
2022/01/24 05:24:46;;;;;;;;;;;-0.50;99.90;;;;;;4969888;28;20467;-67
2022/01/24 05:27:12;;;;;;;;;;;-0.50;99.90;;;;;;4969625;28;19925;-67
2022/01/24 05:29:39;;;;;;;;;;;-0.60;99.90;;;;;;4970015;28;19926;-67
2022/01/24 05:32:08;;;;;;;;;;;-0.50;99.90;;;;;;4969031;28;20400;-67
2022/01/24 05:34:35;;;;;;;;;;;-0.60;99.90;;;;;;4969719;28;20459;-67
2022/01/24 05:37:02;;;;;;;;;;;-0.60;99.90;;;;;;4969920;28;20401;-67
2022/01/24 05:39:29;;;;;;;;;;;-0.60;99.90;;;;;;4969802;28;19926;-68
2022/01/24 05:41:55;;;;;;;;;;;-0.60;99.90;;;;;;4969337;28;19979;-66
2022/01/24 05:44:22;;;;;;;;;;;-0.60;99.90;;;;;;4983071;28;19925;-67
2022/01/24 05:46:49;;;;;;;;;;;-0.60;99.90;;;;;;4989309;28;20015;-66
2022/01/24 05:49:15;;;;;;;;;;;-0.60;99.90;;;;;;4988689;28;19929;-67
2022/01/24 05:51:42;;;;;;;;;;;-0.60;99.90;;;;;;4988869;28;19925;-66
2022/01/24 05:54:11;;;;;;;;;;;-0.60;99.90;;;;;;4986086;28;20410;-68
2022/01/24 05:56:38;;;;;;;;;;;-0.60;99.90;;;;;;4988203;28;20007;-67
2022/01/24 05:59:04;;;;;;;;;;;-0.70;99.90;;;;;;4989205;28;19925;-67
2022/01/24 06:01:31;;;;;;;;;;;-0.70;99.90;;;;;;4986616;28;20181;-67
2022/01/24 06:03:58;;;;;;;;;;;-0.70;99.90;;;;;;4987128;28;19929;-67
2022/01/24 06:06:26;;;;;;;;;;;-0.80;99.90;;;;;;4989045;28;20317;-66
2022/01/24 06:08:53;;;;;;;;;;;-0.80;99.90;;;;;;5003151;28;19956;-59
2022/01/24 06:11:24;;;;;;;;;;;-0.80;99.90;;;;;;4988605;28;19984;-59
2022/01/24 06:13:51;;;;;;;;;;;-0.80;99.90;;;;;;4988882;28;19979;-59
2022/01/24 06:16:18;;;;;;;;;;;-0.80;99.90;;;;;;4988654;28;20259;-59
2022/01/24 06:18:45;;;;;;;;;;;-0.80;99.90;;;;;;4988167;28;19936;-58
2022/01/24 06:21:12;;;;;;;;;;;-0.80;99.90;;;;;;4988386;28;20251;-58
2022/01/24 06:23:38;;;;;;;;;;;-0.80;99.90;;;;;;4987263;28;19937;-59
2022/01/24 06:26:05;;;;;;;;;;;-0.80;99.90;;;;;;4988630;28;20325;-58
2022/01/24 06:28:32;;;;;;;;;;;-0.80;99.90;;;;;;4987767;28;19925;-58
2022/01/24 06:30:59;;;;;;;;;;;-0.90;99.90;;;;;;5003864;28;19929;-58
2022/01/24 06:33:29;;;;;;;;;;;-0.90;99.90;;;;;;4987915;28;20206;-58
2022/01/24 06:35:55;;;;;;;;;;;-0.90;99.90;;;;;;4988764;28;19983;-58
2022/01/24 06:38:22;;;;;;;;;;;-0.90;99.90;;;;;;4988536;28;20077;-58
2022/01/24 06:40:49;;;;;;;;;;;-1.00;99.90;;;;;;4988534;28;19929;-59
2022/01/24 06:43:16;;;;;;;;;;;-1.00;99.90;;;;;;4988217;28;19992;-59
2022/01/24 06:45:42;;;;;;;;;;;-1.00;99.90;;;;;;4987451;28;19925;-59
2022/01/24 06:48:09;;;;;;;;;;;-0.90;99.90;;;;;;4988313;28;19925;-59
2022/01/24 06:50:36;;;;;;;;;;;-0.90;99.90;;;;;;4987393;28;20430;-59
2022/01/24 06:53:03;;;;;;;;;;;-1.00;99.90;;;;;;4988118;28;19930;-60
2022/01/24 06:55:29;;;;;;;;;;;-1.00;99.90;;;;;;4985608;28;19933;-59
2022/01/24 06:57:56;;;;;;;;;;;-1.00;99.90;;;;;;4987444;28;19932;-59
2022/01/24 07:00:26;;;;;;;;;;;-1.00;99.90;;;;;;4986647;28;20241;-59
2022/01/24 07:02:53;;;;;;;;;;;-1.00;99.90;;;;;;4988382;28;19991;-58
2022/01/24 07:05:20;;;;;;;;;;;-1.00;99.90;;;;;;4987672;28;20430;-58
2022/01/24 07:07:46;;;;;;;;;;;-1.00;99.90;;;;;;4991983;28;20298;-58
2022/01/24 07:10:13;;;;;;;;;;;-1.00;99.90;;;;;;4992076;28;20418;-57
2022/01/24 07:12:55;;;;;;;;;;;-1.00;99.90;;;;;;4991520;28;20281;-58
2022/01/24 07:15:30;;;;;;;;;;;-1.00;99.90;;;;;;4992211;28;19929;-57
2022/01/24 07:18:13;;;;;;;;;;;-0.90;99.90;;;;;;4991561;28;19931;-58
2022/01/24 07:20:40;;;;;;;;;;;-0.90;99.90;;;;;;4991584;28;19933;-58
2022/01/24 07:23:06;;;;;;;;;;;-0.90;99.90;;;;;;4991668;28;19926;-58
2022/01/24 07:25:33;;;;;;;;;;;-0.90;99.90;;;;;;4991552;28;19932;-59
2022/01/24 07:28:00;;;;;;;;;;;-0.90;99.90;;;;;;4991857;28;19991;-58
2022/01/24 07:30:27;;;;;;;;;;;-0.90;99.90;;;;;;4991013;28;20040;-58
2022/01/24 07:32:53;;;;;;;;;;;-0.90;99.90;;;;;;4989597;28;19980;-59
2022/01/24 07:35:20;;;;;;;;;;;-0.90;99.90;;;;;;4991502;28;20966;-58
2022/01/24 07:37:47;;;;;;;;;;;-0.90;99.90;;;;;;4991655;28;19929;-58
2022/01/24 07:40:13;;;;;;;;;;;-0.90;99.90;;;;;;4991229;28;19995;-58
2022/01/24 07:43:08;;;;;;;;;;;-0.90;99.90;;;;;;4991307;28;19929;-58
2022/01/24 07:45:35;;;;;;;;;;;-0.90;99.90;;;;;;4989412;28;19957;-58
2022/01/24 07:48:02;;;;;;;;;;;-0.90;99.90;;;;;;4991475;28;19928;-59
2022/01/24 07:50:29;;;;;;;;;;;-0.80;99.90;;;;;;4990368;28;19929;-58
2022/01/24 07:52:55;;;;;;;;;;;-0.80;99.90;;;;;;4991710;28;19960;-58
2022/01/24 07:55:22;;;;;;;;;;;-0.90;99.90;;;;;;4990131;28;19925;-58
2022/01/24 07:57:49;;;;;;;;;;;-0.80;99.90;;;;;;4989811;28;19933;-73
2022/01/24 08:00:16;;;;;;;;;;;-0.80;99.90;;;;;;4991042;28;19925;-66
2022/01/24 08:02:42;;;;;;;;;;;-0.90;99.90;;;;;;4987743;28;20318;-56
2022/01/24 08:05:10;;;;;;;;;;;-0.80;99.90;;;;;;4991083;28;19925;-57
2022/01/24 08:07:37;;;;;;;;;;;-0.90;99.90;;;;;;4990434;28;20073;-57
2022/01/24 08:10:05;;;;;;;;;;;-0.80;99.90;;;;;;4990876;28;19991;-59
2022/01/24 08:12:32;;;;;;;;;;;-0.80;99.90;;;;;;4990590;28;19925;-58
2022/01/24 08:15:02;;;;;;;;;;;-0.80;99.90;;;;;;4990487;28;19959;-60
2022/01/24 08:17:29;;;;;;;;;;;-0.80;99.90;;;;;;4989061;28;19925;-59
2022/01/24 08:19:56;;;;;;;;;;;-0.80;99.90;;;;;;4989875;28;20015;-58
2022/01/24 08:22:23;;;;;;;;;;;-0.80;99.90;;;;;;4990485;28;19929;-59
2022/01/24 08:24:51;;;;;;;;;;;-0.90;99.90;;;;;;4990876;28;20388;-57
2022/01/24 08:27:18;;;;;;;;;;;-0.80;99.90;;;;;;4989171;28;19929;-57
2022/01/24 08:29:47;;;;;;;;;;;-0.90;99.90;;;;;;4990556;28;19932;-57
2022/01/24 08:32:14;;;;;;;;;;;-0.90;99.90;;;;;;4990624;28;19925;-57
2022/01/24 08:34:41;;;;;;;;;;;-0.90;99.90;;;;;;4989756;28;19929;-57
2022/01/24 08:37:28;;;;;;;;;;;-0.90;99.90;;;;;;4990626;28;20055;-58
2022/01/24 08:39:59;;;;;;;;;;;-0.90;99.90;;;;;;4989636;28;20169;-57
2022/01/24 08:42:53;;;;;;;;;;;-0.80;99.90;;;;;;4989019;28;20379;-57
2022/01/24 08:48:05;;;;;;;;;;;-0.90;99.90;;;;;;4989801;28;19975;-57
2022/01/24 08:50:32;;;;;;;;;;;-0.90;99.90;;;;;;4984942;28;20411;-58
2022/01/24 08:53:03;;;;;;;;;;;-0.80;99.90;;;;;;4988870;28;20131;-58
2022/01/24 08:55:33;;;;;;;;;;;-0.90;99.90;;;;;;4989633;28;19932;-58
2022/01/24 08:58:01;;;;;;;;;;;-0.90;99.90;;;;;;4988089;28;19929;-58
2022/01/24 09:00:27;;;;;;;;;;;-0.90;99.90;;;;;;4990312;28;19975;-58
2022/01/24 09:02:54;;;;;;;;;;;-0.90;99.90;;;;;;4988482;28;19925;-59
2022/01/24 09:05:23;;;;;;;;;;;-0.80;99.90;;;;;;4989533;28;20015;-58
2022/01/24 09:07:53;;;;;;;;;;;-0.80;99.90;;;;;;4990245;28;19929;-57
2022/01/24 09:10:23;;;;;;;;;;;-0.80;99.90;;;;;;4989888;28;19929;-58
2022/01/24 09:12:50;;;;;;;;;;;-0.70;99.90;;;;;;4990146;28;19929;-57
2022/01/24 09:15:17;;;;;;;;;;;-0.70;99.90;;;;;;4989779;28;20288;-58
2022/01/24 09:17:44;;;;;;;;;;;-0.70;99.90;;;;;;4989549;28;19925;-59
2022/01/24 09:20:11;;;;;;;;;;;-0.70;99.90;;;;;;4989608;28;19925;-58
2022/01/24 09:22:45;;;;;;;;;;;-0.70;99.90;;;;;;4987869;28;19963;-58
2022/01/24 09:25:15;;;;;;;;;;;-0.70;99.90;;;;;;4988983;28;19929;-58
2022/01/24 09:27:42;;;;;;;;;;;-0.70;99.90;;;;;;4989986;28;20373;-58
2022/01/24 09:30:09;;;;;;;;;;;-0.70;99.90;;;;;;4988800;28;19990;-58
2022/01/24 09:32:36;;;;;;;;;;;-0.70;99.90;;;;;;4989661;28;19973;-58
2022/01/24 09:35:04;;;;;;;;;;;-0.70;99.90;;;;;;4988934;28;19932;-58
2022/01/24 09:37:31;;;;;;;;;;;-0.70;99.90;;;;;;4989470;28;19957;-58
2022/01/24 09:39:58;;;;;;;;;;;-0.70;99.90;;;;;;4986342;28;19927;-58
2022/01/24 09:42:25;;;;;;;;;;;-0.70;99.90;;;;;;4988096;28;20124;-58
2022/01/24 09:44:52;;;;;;;;;;;-0.70;99.90;;;;;;4988486;28;19928;-58
2022/01/24 09:47:18;;;;;;;;;;;-0.70;99.90;;;;;;4989215;28;19925;-59
2022/01/24 09:49:46;;;;;;;;;;;-0.70;99.90;;;;;;4988283;28;19932;-59
2022/01/24 09:52:13;;;;;;;;;;;-0.70;99.90;;;;;;4988565;28;20388;-59
2022/01/24 09:54:40;;;;;;;;;;;-0.60;99.90;;;;;;4988733;28;19925;-59
2022/01/24 09:57:07;;;;;;;;;;;-0.60;99.90;;;;;;4987715;28;20243;-59
2022/01/24 09:59:33;;;;;;;;;;;-0.60;99.90;;;;;;4986860;28;20007;-59
2022/01/24 10:02:01;;;;;;;;;;;-0.60;99.90;;;;;;4988182;28;20326;-59
2022/01/24 10:04:28;;;;;;;;;;;-0.60;99.90;;;;;;4986902;28;20055;-58
2022/01/24 10:06:54;;;;;;;;;;;-0.60;99.90;;;;;;4988788;28;20177;-59
2022/01/24 10:09:28;;;;;;;;;;;-0.60;99.90;;;;;;4987679;28;19925;-57
2022/01/24 10:12:07;;;;;;;;;;;-0.60;99.90;;;;;;4986350;28;20307;-58
2022/01/24 10:17:21;;;;;;;;;;;-0.50;99.90;;;;;;4988343;28;19929;-58
2022/01/24 10:19:48;;;;;;;;;;;-0.50;99.90;;;;;;5000747;28;19925;-59
2022/01/24 10:22:14;;;;;;;;;;;-0.50;99.90;;;;;;4988541;28;20128;-59
2022/01/24 10:24:45;;;;;;;;;;;-0.50;99.90;;;;;;4988312;28;19931;-58
2022/01/24 10:27:28;;;;;;;;;;;-0.50;99.90;;;;;;4988414;28;20137;-59
2022/01/24 10:30:00;;;;;;;;;;;-0.50;99.90;;;;;;4987716;28;19948;-59
2022/01/24 10:32:38;;;;;;;;;;;-0.50;99.90;;;;;;4987148;28;20038;-67
2022/01/24 10:35:23;;;;;;;;;;;-0.50;99.90;;;;;;4986823;28;20134;-57
2022/01/24 10:37:53;;;;;;;;;;;-0.50;99.90;;;;;;4987423;28;20174;-58
2022/01/24 10:40:56;;;;;;;;;;;-0.50;99.90;;;;;;4987492;28;19932;-58
2022/01/24 10:43:26;;;;;;;;;;;-0.40;99.90;;;;;;4987909;28;20280;-60
2022/01/24 10:45:55;;;;;;;;;;;-0.40;99.90;;;;;;4987375;28;19952;-60
2022/01/24 10:48:27;;;;;;;;;;;-0.40;99.90;;;;;;4987663;28;20296;-60
2022/01/24 10:51:03;;;;;;;;;;;-0.40;99.90;;;;;;4967790;28;19925;-60
2022/01/24 10:53:34;;;;;;;;;;;-0.40;99.90;;;;;;4968318;28;19933;-60
2022/01/24 10:56:01;;;;;;;;;;;-0.40;99.90;;;;;;4968154;28;20404;-60
2022/01/24 10:58:33;;;;;;;;;;;-0.40;99.90;;;;;;4972515;28;19929;-59
2022/01/24 11:01:00;;;;;;;;;;;-0.40;99.90;;;;;;4984226;28;19929;-60
2022/01/24 11:03:27;;;;;;;;;;;-0.40;99.90;;;;;;4987233;28;19933;-60
2022/01/24 11:05:54;;;;;;;;;;;-0.40;99.90;;;;;;4987732;28;20376;-60
2022/01/24 11:08:21;;;;;;;;;;;-0.30;99.90;;;;;;4987290;28;20470;-60
2022/01/24 11:10:50;;;;;;;;;;;-0.30;99.90;;;;;;4987666;28;19925;-60
2022/01/24 11:13:19;;;;;;;;;;;-0.20;99.90;;;;;;4987020;28;19984;-60
2022/01/24 11:15:55;;;;;;;;;;;-0.20;99.90;;;;;;4988334;28;20454;-59
2022/01/24 11:18:27;;;;;;;;;;;-0.10;99.90;;;;;;4987444;28;19934;-60
2022/01/24 11:21:02;;;;;;;;;;;0.00;99.90;;;;;;4987403;28;20276;-60
2022/01/24 11:23:28;;;;;;;;;;;0.00;99.90;;;;;;4987637;28;20521;-59
2022/01/24 11:26:01;;;;;;;;;;;0.10;99.90;;;;;;4986937;28;20034;-60
2022/01/24 11:28:27;;;;;;;;;;;0.10;99.90;;;;;;4988078;28;20251;-60
2022/01/24 11:31:19;;;;;;;;;;;0.10;99.90;;;;;;4987164;28;19936;-60
2022/01/24 11:34:00;;;;;;;;;;;0.10;99.90;;;;;;4988150;28;20370;-57
2022/01/24 11:36:37;;;;;;;;;;;0.10;99.90;;;;;;4985987;28;20395;-57
2022/01/24 11:39:05;;;;;;;;;;;0.20;99.90;;;;;;4987237;28;19976;-57
2022/01/24 11:41:33;;;;;;;;;;;0.30;99.90;;;;;;4987538;28;19991;-57
2022/01/24 11:44:12;;;;;;;;;;;0.40;99.90;;;;;;4986810;28;19995;-58
2022/01/24 11:46:48;;;;;;;;;;;0.40;99.90;;;;;;4987783;28;19925;-59
2022/01/24 11:49:17;;;;;;;;;;;0.50;99.90;;;;;;4986909;28;20395;-59
2022/01/24 11:51:59;;;;;;;;;;;0.60;99.90;;;;;;4986640;28;20284;-59
2022/01/24 11:54:31;;;;;;;;;;;0.60;99.90;;;;;;4992034;28;19933;-59
2022/01/24 11:57:15;;;;;;;;;;;0.70;99.90;;;;;;4991106;28;19925;-59
2022/01/24 11:59:43;;;;;;;;;;;0.80;99.90;;;;;;4989230;28;19929;-59
2022/01/24 12:02:15;;;;;;;;;;;1.00;99.90;;;;;;4988719;28;20011;-59
2022/01/24 12:04:48;;;;;;;;;;;1.00;99.90;;;;;;4991131;28;19925;-59
2022/01/24 12:07:15;;;;;;;;;;;1.10;99.90;;;;;;4990969;28;20230;-58
2022/01/24 12:09:42;;;;;;;;;;;1.20;99.90;;;;;;4990750;28;19931;-58
2022/01/24 12:12:34;;;;;;;;;;;1.30;99.90;;;;;;4990296;28;20379;-58
2022/01/24 12:15:04;;;;;;;;;;;1.40;99.90;;;;;;4991218;28;19936;-58
2022/01/24 12:17:47;;;;;;;;;;;1.50;99.90;;;;;;4991165;28;20320;-58
2022/01/24 12:20:46;;;;;;;;;;;1.50;99.90;;;;;;4990587;28;19991;-58
2022/01/24 12:23:16;;;;;;;;;;;1.60;99.90;;;;;;4968060;28;19925;-58
2022/01/24 12:26:05;;;;;;;;;;;1.70;99.90;;;;;;4990144;28;20059;-58
2022/01/24 12:28:34;;;;;;;;;;;1.80;99.90;;;;;;4990777;28;20213;-58
2022/01/24 12:31:05;;;;;;;;;;;1.80;99.90;;;;;;4990182;28;19998;-58
2022/01/24 12:33:33;;;;;;;;;;;1.90;99.90;;;;;;4990635;28;19940;-58
2022/01/24 12:36:01;;;;;;;;;;;1.90;99.90;;;;;;4990328;28;20155;-58
2022/01/24 12:38:44;;;;;;;;;;;2.00;99.90;;;;;;4991091;28;19932;-58
2022/01/24 12:41:14;;;;;;;;;;;2.00;99.90;;;;;;4990123;28;19925;-58
2022/01/24 12:43:56;;;;;;;;;;;2.00;99.90;;;;;;4990089;28;20024;-59
2022/01/24 12:46:26;;;;;;;;;;;2.00;99.90;;;;;;4988414;28;20718;-59
2022/01/24 12:48:57;;;;;;;;;;;2.00;99.90;;;;;;4990329;28;19929;-59
2022/01/24 12:51:24;;;;;;;;;;;2.00;99.90;;;;;;4990629;28;19926;-58
2022/01/24 12:53:51;;;;;;;;;;;2.00;99.90;;;;;;4990408;28;20681;-57
2022/01/24 12:56:23;;;;;;;;;;;2.10;99.90;;;;;;4990636;28;19932;-58
2022/01/24 12:58:50;;;;;;;;;;;2.10;99.90;;;;;;4989294;28;20539;-57
2022/01/24 13:01:17;;;;;;;;;;;2.10;99.90;;;;;;4987799;28;19926;-58
2022/01/24 13:03:45;;;;;;;;;;;2.10;99.90;;;;;;4987895;28;19940;-59
2022/01/24 13:06:17;;;;;;;;;;;2.00;99.90;;;;;;4989964;28;21029;-59
2022/01/24 13:08:56;;;;;;;;;;;2.10;99.90;;;;;;4989446;28;19925;-59
2022/01/24 13:11:23;;;;;;;;;;;2.10;99.90;;;;;;4990563;28;20641;-59
2022/01/24 13:13:57;;;;;;;;;;;2.20;99.90;;;;;;4990209;28;20160;-59
2022/01/24 13:22:20;;;;;;;;;;;2.70;99.90;;;;;;4970680;28;20990;-57
2022/01/24 13:25:08;;;;;;;;;;;2.90;99.90;;;;;;4970221;28;19933;-57
2022/01/24 13:27:35;;;;;;;;;;;3.10;99.90;;;;;;4970835;28;20017;-57
2022/01/24 13:30:06;;;;;;;;;;;3.40;99.90;;;;;;4968628;28;20159;-57
2022/01/24 13:33:05;;;;;;;;;;;3.50;99.90;;;;;;4967902;28;20370;-58
2022/01/24 13:35:33;;;;;;;;;;;3.60;99.90;;;;;;4957066;28;19965;-58
2022/01/24 13:38:06;;;;;;;;;;;3.80;99.90;;;;;;4969280;28;20031;-58
2022/01/24 13:40:52;;;;;;;;;;;4.00;99.90;;;;;;4969415;28;20277;-58
2022/01/24 13:43:34;;;;;;;;;;;4.10;99.90;;;;;;4974674;28;20293;-58
2022/01/24 13:46:02;;;;;;;;;;;4.10;99.90;;;;;;4988603;28;19961;-58
2022/01/24 13:48:36;;;;;;;;;;;4.10;99.90;;;;;;4989175;28;19925;-58
2022/01/24 13:51:03;;;;;;;;;;;3.90;99.90;;;;;;4989111;28;19925;-58
2022/01/24 13:53:32;;;;;;;;;;;3.80;99.90;;;;;;4989323;28;19925;-58
2022/01/24 13:56:00;;;;;;;;;;;3.70;99.90;;;;;;4989003;28;19953;-58
2022/01/24 13:58:27;;;;;;;;;;;3.50;99.90;;;;;;4988874;28;19961;-58
2022/01/24 14:00:58;;;;;;;;;;;3.30;99.90;;;;;;4989415;28;19979;-58
2022/01/24 14:03:25;;;;;;;;;;;3.20;99.90;;;;;;4987237;28;20552;-58
2022/01/24 14:06:12;;;;;;;;;;;3.10;99.90;;;;;;4988975;28;20394;-58
2022/01/24 14:08:41;;;;;;;;;;;3.10;99.90;;;;;;4988774;28;19925;-58
2022/01/24 14:11:13;;;;;;;;;;;3.10;99.90;;;;;;4988422;28;20152;-58
2022/01/24 14:13:46;;;;;;;;;;;3.10;99.90;;;;;;4989641;28;19972;-58
2022/01/24 14:16:51;;;;;;;;;;;3.10;99.90;;;;;;4988153;28;19964;-58
2022/01/24 14:19:27;;;;;;;;;;;3.10;99.90;;;;;;4988269;28;19955;-58
2022/01/24 14:22:08;;;;;;;;;;;3.20;99.90;;;;;;4989137;28;19925;-58
2022/01/24 14:24:50;;;;;;;;;;;3.10;99.90;;;;;;4989251;28;19921;-58
2022/01/24 14:27:35;;;;;;;;;;;3.10;99.90;;;;;;4988395;28;19933;-58
2022/01/24 14:30:25;;;;;;;;;;;3.10;99.90;;;;;;4988228;28;20147;-58
2022/01/24 14:32:58;;;;;;;;;;;3.10;99.90;;;;;;4988913;28;20467;-58
2022/01/24 14:35:25;;;;;;;;;;;3.10;99.90;;;;;;4988708;28;19932;-58
2022/01/24 14:37:54;;;;;;;;;;;3.10;99.90;;;;;;4987790;28;20350;-58
2022/01/24 14:40:45;;;;;;;;;;;3.10;99.90;;;;;;4988715;28;19991;-58
2022/01/24 14:46:05;;;;;;;;;;;3.10;99.90;;;;;;4988202;28;19952;-58
2022/01/24 14:48:39;;;;;;;;;;;3.10;99.90;;;;;;4988059;28;20019;-58
2022/01/24 14:51:06;;;;;;;;;;;3.00;99.90;;;;;;4988089;28;19936;-58
2022/01/24 14:53:34;;;;;;;;;;;3.00;99.90;;;;;;4988743;28;19948;-58
2022/01/24 14:56:01;;;;;;;;;;;2.90;99.90;;;;;;4986972;28;20595;-58
2022/01/24 14:58:28;;;;;;;;;;;2.80;99.90;;;;;;4988299;28;19929;-58
2022/01/24 15:00:54;;;;;;;;;;;2.80;99.90;;;;;;4988127;28;19944;-58
2022/01/24 15:03:21;;;;;;;;;;;2.70;99.90;;;;;;4986923;28;20179;-58
2022/01/24 15:05:48;;;;;;;;;;;2.70;99.90;;;;;;4987138;28;19961;-58
2022/01/24 15:08:15;;;;;;;;;;;2.60;99.90;;;;;;4987862;28;20350;-58
2022/01/24 15:10:41;;;;;;;;;;;2.50;99.90;;;;;;4987342;28;19930;-58
2022/01/24 15:13:10;;;;;;;;;;;2.50;99.90;;;;;;4988586;28;19925;-58
2022/01/24 15:15:42;;;;;;;;;;;2.40;99.90;;;;;;4987308;28;20167;-58
2022/01/24 15:24:13;;;;;;;;;;;2.10;99.90;;;;;;4988107;28;20003;-57
2022/01/24 15:26:41;;;;;;;;;;;2.00;99.90;;;;;;4988040;28;20393;-57
2022/01/24 15:29:08;;;;;;;;;;;1.90;99.90;;;;;;4989492;28;20291;-57
2022/01/24 15:31:34;;;;;;;;;;;1.80;99.90;;;;;;4991790;28;19929;-57
2022/01/24 15:34:02;;;;;;;;;;;1.70;99.90;;;;;;4992104;28;19926;-57
2022/01/24 15:36:29;;;;;;;;;;;1.70;99.90;;;;;;4991674;28;19925;-59
2022/01/24 15:38:59;;;;;;;;;;;1.60;99.90;;;;;;4992056;28;19929;-58
2022/01/24 15:41:26;;;;;;;;;;;1.50;99.90;;;;;;4991407;28;19933;-58
2022/01/24 15:44:08;;;;;;;;;;;1.50;99.90;;;;;;4991219;28;20022;-58
2022/01/24 15:46:56;;;;;;;;;;;1.40;99.90;;;;;;4991602;28;19925;-58
2022/01/24 15:49:22;;;;;;;;;;;1.30;99.90;;;;;;4991400;28;19929;-58
2022/01/24 15:51:49;;;;;;;;;;;1.20;99.90;;;;;;4991986;28;19991;-58
2022/01/24 15:54:19;;;;;;;;;;;1.20;99.90;;;;;;4990896;28;20380;-58
2022/01/24 15:59:12;;;;;;;;;;;1.10;99.90;;;;;;4990911;28;19925;-58
2022/01/24 16:01:39;;;;;;;;;;;1.10;99.90;;;;;;4991173;28;20180;-58
2022/01/24 16:04:06;;;;;;;;;;;1.00;99.90;;;;;;4990145;28;20013;-58
2022/01/24 16:06:33;;;;;;;;;;;0.90;99.90;;;;;;4989274;28;20248;-58
2022/01/24 16:09:00;;;;;;;;;;;0.80;99.90;;;;;;4988749;28;19975;-52
2022/01/24 16:11:27;;;;;;;;;;;0.80;99.90;;;;;;4991098;28;20355;-71
2022/01/24 16:14:14;;;;;;;;;;;0.80;99.90;;;;;;4988773;28;20545;-70
2022/01/24 16:16:41;;;;;;;;;;;0.80;99.90;;;;;;4987657;28;19925;-68
2022/01/24 16:19:08;;;;;;;;;;;0.80;99.90;;;;;;4989015;28;20115;-66
2022/01/24 16:21:46;;;;;;;;;;;0.80;99.90;;;;;;4987800;28;20391;-67
2022/01/24 16:26:45;;;;;;;;;;;0.70;99.90;;;;;;4990486;28;19979;-66
2022/01/24 16:29:12;;;;;;;;;;;0.70;99.90;;;;;;4989989;28;20414;-65
2022/01/24 16:31:39;;;;;;;;;;;0.60;99.90;;;;;;4989399;28;20014;-66
2022/01/24 16:34:06;;;;;;;;;;;0.60;99.90;;;;;;4989310;28;19921;-68